Time;durP1;ratioP1;P1;durP2;ratioP2;P2;SDS_P1;SDS_P2;PMS_P1;PMS_P2;Temp;Humidity;BMP_temperature;BMP_pressure;BME280_temperature;BME280_humidity;BME280_pressure;Samples;Min_cycle;Max_cycle;Signal;HPM_P1;HPM_P2
2021/10/27 00:00:04;;;;;;;15.93;11.55;;;;;;;;;;5011983;28;20174;-71
2021/10/27 00:02:29;;;;;;;16.60;11.23;;;;;;;;;;5010192;28;20170;-71
2021/10/27 00:04:54;;;;;;;23.80;11.60;;;;;;;;;;5008760;28;20189;-71
2021/10/27 00:07:20;;;;;;;13.90;10.43;;;;;;;;;;5014697;28;20975;-71
2021/10/27 00:09:45;;;;;;;17.35;10.98;;;;;;;;;;5013338;28;20447;-72
2021/10/27 00:12:10;;;;;;;18.88;11.30;;;;;;;;;;5025303;28;20307;-71
2021/10/27 00:14:35;;;;;;;20.38;10.05;;;;;;;;;;5013441;28;20570;-71
2021/10/27 00:17:00;;;;;;;17.58;10.60;;;;;;;;;;5010615;28;20660;-71
2021/10/27 00:19:26;;;;;;;18.23;11.85;;;;;;;;;;5010661;28;20814;-71
2021/10/27 00:21:51;;;;;;;14.55;9.00;;;;;;;;;;5007336;28;20818;-71
2021/10/27 00:24:16;;;;;;;17.13;9.88;;;;;;;;;;5009360;28;20605;-71
2021/10/27 00:26:42;;;;;;;23.25;9.20;;;;;;;;;;4995556;28;20269;-71
2021/10/27 00:29:07;;;;;;;17.17;9.43;;;;;;;;;;5009613;28;20208;-71
2021/10/27 00:31:32;;;;;;;10.93;8.17;;;;;;;;;;5005232;28;20214;-72
2021/10/27 00:33:58;;;;;;;17.45;8.98;;;;;;;;;;5010385;28;21094;-71
2021/10/27 00:36:23;;;;;;;15.68;9.05;;;;;;;;;;5009399;28;20224;-72
2021/10/27 00:38:48;;;;;;;20.40;9.23;;;;;;;;;;5010725;28;20294;-71
2021/10/27 00:41:14;;;;;;;10.47;7.80;;;;;;;;;;5011274;28;20831;-71
2021/10/27 00:43:39;;;;;;;14.73;7.63;;;;;;;;;;5010809;28;20435;-71
2021/10/27 00:46:05;;;;;;;13.98;8.43;;;;;;;;;;5009383;28;20193;-71
2021/10/27 00:48:30;;;;;;;12.32;7.97;;;;;;;;;;5009093;28;21142;-72
2021/10/27 00:50:55;;;;;;;14.07;8.95;;;;;;;;;;5016015;28;20185;-71
2021/10/27 00:53:21;;;;;;;13.70;9.40;;;;;;;;;;5011604;28;22466;-71
2021/10/27 00:55:47;;;;;;;22.67;12.13;;;;;;;;;;5011435;28;20280;-71
2021/10/27 00:58:12;;;;;;;16.05;10.23;;;;;;;;;;5016576;28;20225;-71
2021/10/27 01:00:37;;;;;;;16.63;9.80;;;;;;;;;;5007707;28;20174;-71
2021/10/27 01:03:02;;;;;;;18.25;10.60;;;;;;;;;;5007603;28;20202;-71
2021/10/27 01:05:27;;;;;;;17.17;10.77;;;;;;;;;;5009364;28;20550;-71
2021/10/27 01:07:53;;;;;;;20.80;10.88;;;;;;;;;;4992021;28;20536;-71
2021/10/27 01:10:18;;;;;;;12.07;9.95;;;;;;;;;;5009170;28;20181;-71
2021/10/27 01:12:45;;;;;;;18.52;11.50;;;;;;;;;;5008490;28;20330;-71
2021/10/27 01:15:11;;;;;;;22.55;12.13;;;;;;;;;;5012153;28;20193;-72
2021/10/27 01:17:36;;;;;;;16.15;11.57;;;;;;;;;;5008709;28;20784;-71
2021/10/27 01:20:02;;;;;;;15.77;10.60;;;;;;;;;;5008536;28;20178;-71
2021/10/27 01:22:29;;;;;;;16.95;11.85;;;;;;;;;;5010240;28;20276;-71
2021/10/27 01:24:55;;;;;;;16.52;10.73;;;;;;;;;;5009462;28;20174;-71
2021/10/27 01:27:21;;;;;;;16.08;11.80;;;;;;;;;;5013239;28;20185;-71
2021/10/27 01:29:46;;;;;;;28.25;12.75;;;;;;;;;;5010117;28;20183;-71
2021/10/27 01:32:32;;;;;;;13.68;9.88;;;;;;;;;;5007927;28;20174;-72
2021/10/27 01:34:58;;;;;;;15.88;10.07;;;;;;;;;;5006922;28;20241;-71
2021/10/27 01:37:24;;;;;;;17.73;10.68;;;;;;;;;;5007514;28;20190;-71
2021/10/27 01:39:50;;;;;;;15.15;10.30;;;;;;;;;;5011947;28;20651;-71
2021/10/27 01:42:15;;;;;;;20.13;10.70;;;;;;;;;;5007318;28;20290;-71
2021/10/27 01:44:40;;;;;;;18.50;9.70;;;;;;;;;;5008768;28;20309;-71
2021/10/27 01:47:06;;;;;;;19.23;9.43;;;;;;;;;;5008006;28;20185;-71
2021/10/27 01:49:31;;;;;;;12.80;9.00;;;;;;;;;;5010530;28;20725;-71
2021/10/27 01:51:58;;;;;;;18.27;9.50;;;;;;;;;;5012074;28;20190;-71
2021/10/27 01:54:23;;;;;;;17.27;9.32;;;;;;;;;;5024171;28;20190;-71
2021/10/27 01:56:48;;;;;;;16.98;9.15;;;;;;;;;;5028821;28;20273;-71
2021/10/27 01:59:13;;;;;;;12.63;8.32;;;;;;;;;;5029176;28;20717;-71
2021/10/27 02:01:39;;;;;;;13.00;7.57;;;;;;;;;;5028248;28;20182;-71
2021/10/27 02:04:04;;;;;;;17.13;7.77;;;;;;;;;;5007502;28;20952;-71
2021/10/27 02:06:29;;;;;;;11.90;7.47;;;;;;;;;;5007098;28;20529;-71
2021/10/27 02:08:54;;;;;;;14.05;6.95;;;;;;;;;;5008507;28;20241;-71
2021/10/27 02:11:20;;;;;;;12.43;6.57;;;;;;;;;;5006670;28;20892;-71
2021/10/27 02:13:45;;;;;;;11.18;6.50;;;;;;;;;;5021469;23;20320;-72
2021/10/27 02:16:11;;;;;;;13.38;6.93;;;;;;;;;;5008355;28;20190;-71
2021/10/27 02:18:37;;;;;;;12.73;5.97;;;;;;;;;;5014830;28;20267;-73
2021/10/27 02:21:02;;;;;;;10.50;5.55;;;;;;;;;;5007233;28;20747;-73
2021/10/27 02:23:27;;;;;;;13.77;6.28;;;;;;;;;;5012480;28;20195;-73
2021/10/27 02:25:52;;;;;;;14.77;6.28;;;;;;;;;;4988344;28;20187;-73
2021/10/27 02:28:18;;;;;;;15.27;5.35;;;;;;;;;;4995718;28;20183;-72
2021/10/27 02:30:43;;;;;;;11.32;4.95;;;;;;;;;;4988534;28;20191;-73
2021/10/27 02:33:08;;;;;;;14.80;6.38;;;;;;;;;;4970358;28;20256;-73
2021/10/27 02:35:33;;;;;;;10.68;5.85;;;;;;;;;;4987462;28;20206;-73
2021/10/27 02:37:59;;;;;;;9.90;5.40;;;;;;;;;;4987426;28;20206;-72
2021/10/27 02:40:24;;;;;;;11.38;5.80;;;;;;;;;;4988785;28;21416;-74
2021/10/27 02:42:49;;;;;;;15.85;5.20;;;;;;;;;;4988417;28;20194;-73
2021/10/27 02:45:15;;;;;;;16.75;5.38;;;;;;;;;;4995846;28;20234;-73
2021/10/27 02:47:42;;;;;;;9.65;4.75;;;;;;;;;;4987998;28;21904;-73
2021/10/27 02:50:09;;;;;;;14.70;5.10;;;;;;;;;;4987649;28;20224;-74
2021/10/27 02:52:34;;;;;;;10.30;5.65;;;;;;;;;;4972064;28;20191;-71
2021/10/27 02:54:59;;;;;;;11.13;5.30;;;;;;;;;;4991761;28;20199;-73
2021/10/27 02:57:25;;;;;;;9.25;4.75;;;;;;;;;;4993613;28;20190;-71
2021/10/27 02:59:50;;;;;;;10.02;4.38;;;;;;;;;;4986736;28;21626;-73
2021/10/27 03:02:15;;;;;;;7.68;4.63;;;;;;;;;;4986303;28;20185;-72
2021/10/27 03:04:40;;;;;;;11.17;5.47;;;;;;;;;;4986282;28;20209;-72
2021/10/27 03:07:06;;;;;;;9.68;4.75;;;;;;;;;;4970426;28;20423;-72
2021/10/27 03:09:31;;;;;;;11.68;4.45;;;;;;;;;;4987149;28;20237;-72
2021/10/27 03:11:56;;;;;;;9.82;4.53;;;;;;;;;;4990580;28;20670;-73
2021/10/27 03:14:21;;;;;;;10.27;4.70;;;;;;;;;;4987630;28;20218;-73
2021/10/27 03:16:47;;;;;;;9.88;3.88;;;;;;;;;;4986622;28;20763;-73
2021/10/27 03:19:12;;;;;;;10.70;4.60;;;;;;;;;;4988577;28;20297;-73
2021/10/27 03:21:37;;;;;;;10.13;4.43;;;;;;;;;;4969563;28;20175;-73
2021/10/27 03:24:03;;;;;;;11.95;4.07;;;;;;;;;;4987570;28;20202;-72
2021/10/27 03:26:28;;;;;;;6.57;3.42;;;;;;;;;;4991851;28;20264;-74
2021/10/27 03:28:53;;;;;;;10.65;5.05;;;;;;;;;;4988155;28;20280;-72
2021/10/27 03:31:18;;;;;;;9.57;4.55;;;;;;;;;;4988485;28;20179;-72
2021/10/27 03:33:43;;;;;;;7.43;3.70;;;;;;;;;;4985252;28;20237;-72
2021/10/27 03:36:09;;;;;;;10.60;4.88;;;;;;;;;;4987780;28;20199;-73
2021/10/27 03:38:34;;;;;;;11.43;4.22;;;;;;;;;;4986285;28;20203;-73
2021/10/27 03:40:59;;;;;;;5.20;3.40;;;;;;;;;;4990987;28;20202;-73
2021/10/27 03:43:25;;;;;;;8.25;3.92;;;;;;;;;;4989956;28;20217;-73
2021/10/27 03:45:50;;;;;;;8.32;4.13;;;;;;;;;;4990583;28;20175;-72
2021/10/27 03:48:15;;;;;;;10.52;4.72;;;;;;;;;;4991934;28;20280;-73
2021/10/27 03:50:40;;;;;;;9.25;3.58;;;;;;;;;;4990070;28;20539;-72
2021/10/27 03:53:06;;;;;;;10.40;3.15;;;;;;;;;;4991942;28;20538;-73
2021/10/27 03:55:31;;;;;;;8.63;3.40;;;;;;;;;;4974776;28;20179;-73
2021/10/27 03:57:59;;;;;;;7.95;3.25;;;;;;;;;;4996603;28;20257;-72
2021/10/27 04:00:25;;;;;;;9.88;3.90;;;;;;;;;;4990664;28;20177;-73
2021/10/27 04:02:50;;;;;;;8.95;4.03;;;;;;;;;;4969445;28;20637;-73
2021/10/27 04:05:16;;;;;;;10.82;3.72;;;;;;;;;;4971776;28;20241;-73
2021/10/27 04:07:41;;;;;;;5.65;3.75;;;;;;;;;;4995072;28;20725;-71
2021/10/27 04:10:07;;;;;;;9.27;3.17;;;;;;;;;;4993083;28;21770;-71
2021/10/27 04:12:34;;;;;;;11.20;4.20;;;;;;;;;;4991801;28;21000;-71
2021/10/27 04:14:59;;;;;;;14.75;4.07;;;;;;;;;;4973345;28;20918;-72
2021/10/27 04:17:24;;;;;;;11.20;3.85;;;;;;;;;;4991862;28;20190;-73
2021/10/27 04:19:49;;;;;;;6.40;2.90;;;;;;;;;;4970663;28;20309;-73
2021/10/27 04:22:15;;;;;;;13.40;3.33;;;;;;;;;;4989701;28;20183;-73
2021/10/27 04:24:40;;;;;;;7.03;3.53;;;;;;;;;;4989629;28;20940;-73
2021/10/27 04:27:05;;;;;;;7.68;3.35;;;;;;;;;;4992771;28;20187;-73
2021/10/27 04:29:31;;;;;;;8.88;3.47;;;;;;;;;;4991192;28;20183;-72
2021/10/27 04:31:56;;;;;;;7.78;3.22;;;;;;;;;;4990336;28;20699;-73
2021/10/27 04:34:22;;;;;;;5.18;2.80;;;;;;;;;;4989152;28;20297;-72
2021/10/27 04:36:47;;;;;;;7.00;3.65;;;;;;;;;;4988341;28;20183;-73
2021/10/27 04:39:13;;;;;;;7.85;3.75;;;;;;;;;;4991312;28;20194;-73
2021/10/27 04:41:38;;;;;;;8.00;3.63;;;;;;;;;;4993355;28;20852;-73
2021/10/27 04:44:04;;;;;;;8.10;3.70;;;;;;;;;;4995214;28;20214;-72
2021/10/27 04:46:29;;;;;;;6.95;3.60;;;;;;;;;;4992257;28;20329;-72
2021/10/27 04:48:54;;;;;;;9.02;3.30;;;;;;;;;;4989290;28;20226;-72
2021/10/27 04:51:19;;;;;;;7.68;4.07;;;;;;;;;;4990750;28;20880;-73
2021/10/27 04:53:45;;;;;;;9.43;3.40;;;;;;;;;;4988100;28;20877;-72
2021/10/27 04:56:10;;;;;;;7.05;3.10;;;;;;;;;;4993645;28;20436;-74
2021/10/27 04:58:35;;;;;;;10.02;4.25;;;;;;;;;;5002409;28;20256;-73
2021/10/27 05:01:00;;;;;;;5.82;3.63;;;;;;;;;;4991169;28;20187;-72
2021/10/27 05:03:25;;;;;;;10.80;3.40;;;;;;;;;;4996137;28;20238;-72
2021/10/27 05:05:56;;;;;;;9.80;3.55;;;;;;;;;;4990766;28;20467;-70
2021/10/27 05:08:24;;;;;;;10.25;3.70;;;;;;;;;;4986688;28;20633;-72
2021/10/27 05:10:50;;;;;;;8.55;3.58;;;;;;;;;;4990807;28;20245;-72
2021/10/27 05:13:15;;;;;;;8.63;3.67;;;;;;;;;;4987313;28;20206;-74
2021/10/27 05:15:41;;;;;;;12.07;4.22;;;;;;;;;;4989858;28;20186;-72
2021/10/27 05:18:06;;;;;;;6.65;3.60;;;;;;;;;;4996906;28;20245;-73
2021/10/27 05:20:32;;;;;;;7.60;3.85;;;;;;;;;;4974117;28;20182;-72
2021/10/27 05:22:57;;;;;;;7.60;4.05;;;;;;;;;;4989789;28;20646;-73
2021/10/27 05:25:22;;;;;;;11.32;4.25;;;;;;;;;;4970277;28;20176;-74
2021/10/27 05:27:47;;;;;;;6.82;3.58;;;;;;;;;;4989584;28;20179;-71
2021/10/27 05:30:12;;;;;;;10.15;3.60;;;;;;;;;;4994912;28;20190;-73
2021/10/27 05:32:38;;;;;;;8.88;3.58;;;;;;;;;;4989375;28;20896;-72
2021/10/27 05:35:04;;;;;;;8.93;3.97;;;;;;;;;;4972104;28;20537;-73
2021/10/27 05:37:29;;;;;;;7.82;3.50;;;;;;;;;;4987586;28;20253;-71
2021/10/27 05:39:54;;;;;;;8.55;4.05;;;;;;;;;;4974106;28;20215;-73
2021/10/27 05:42:27;;;;;;;6.25;4.10;;;;;;;;;;4986398;28;20179;-72
2021/10/27 05:44:52;;;;;;;6.82;3.60;;;;;;;;;;4970848;28;20206;-72
2021/10/27 05:47:17;;;;;;;9.88;3.40;;;;;;;;;;4972906;28;20181;-72
2021/10/27 05:49:49;;;;;;;8.77;3.45;;;;;;;;;;5000723;28;20183;-72
2021/10/27 05:57:27;;;;;;;12.40;3.75;;;;;;;;;;4993292;28;20202;-73
2021/10/27 05:59:53;;;;;;;6.55;3.42;;;;;;;;;;4969691;28;20221;-72
2021/10/27 06:02:18;;;;;;;7.03;4.20;;;;;;;;;;4987352;28;20192;-72
2021/10/27 06:04:44;;;;;;;8.32;3.97;;;;;;;;;;4988260;28;20452;-71
2021/10/27 06:07:09;;;;;;;6.72;3.83;;;;;;;;;;4986495;28;21113;-72
2021/10/27 06:09:37;;;;;;;7.15;3.85;;;;;;;;;;4988909;28;20236;-71
2021/10/27 06:12:05;;;;;;;7.75;3.83;;;;;;;;;;4988507;28;20175;-72
2021/10/27 06:14:31;;;;;;;6.22;3.70;;;;;;;;;;4988995;28;20257;-72
2021/10/27 06:16:56;;;;;;;6.25;4.13;;;;;;;;;;4970185;28;20314;-72
2021/10/27 06:19:22;;;;;;;12.90;4.30;;;;;;;;;;4990618;28;20209;-72
2021/10/27 06:21:47;;;;;;;9.85;4.15;;;;;;;;;;4988073;28;20183;-72
2021/10/27 06:24:12;;;;;;;7.05;3.80;;;;;;;;;;4970188;28;20222;-71
2021/10/27 06:26:37;;;;;;;7.78;3.90;;;;;;;;;;4987803;28;20757;-71
2021/10/27 06:29:08;;;;;;;10.00;4.32;;;;;;;;;;4990969;28;20241;-71
2021/10/27 06:32:01;;;;;;;7.25;4.38;;;;;;;;;;4977772;28;20185;-71
2021/10/27 06:34:32;;;;;;;10.93;5.15;;;;;;;;;;4987791;28;20614;-73
2021/10/27 06:47:53;;;;;;;10.27;4.65;;;;;;;;;;4993304;28;20805;-72
2021/10/27 06:50:19;;;;;;;9.88;4.78;;;;;;;;;;4988676;28;20191;-72
2021/10/27 06:52:45;;;;;;;9.18;3.83;;;;;;;;;;4970136;28;20210;-73
2021/10/27 06:55:10;;;;;;;11.68;5.03;;;;;;;;;;4989462;28;20874;-73
2021/10/27 06:57:35;;;;;;;11.20;4.88;;;;;;;;;;4978493;28;20182;-74
2021/10/27 07:00:12;;;;;;;12.80;3.97;;;;;;;;;;4971312;28;20841;-72
2021/10/27 07:16:08;;;;;;;8.18;4.68;;;;;;;;;;4991556;28;20213;-71
2021/10/27 07:18:33;;;;;;;8.70;4.80;;;;;;;;;;5000938;28;20271;-72
2021/10/27 07:20:58;;;;;;;10.73;4.38;;;;;;;;;;5003458;28;20207;-71
2021/10/27 07:23:24;;;;;;;9.02;5.20;;;;;;;;;;4995742;28;20198;-73
2021/10/27 07:25:56;;;;;;;7.45;4.68;;;;;;;;;;4995360;28;20248;-72
2021/10/27 07:28:22;;;;;;;8.35;4.85;;;;;;;;;;4995891;28;20179;-72
2021/10/27 07:30:48;;;;;;;8.55;4.78;;;;;;;;;;5009954;28;20257;-71
2021/10/27 07:33:13;;;;;;;8.68;4.18;;;;;;;;;;5017187;28;20202;-72
2021/10/27 07:35:50;;;;;;;8.82;4.68;;;;;;;;;;5005743;28;20282;-72
2021/10/27 07:41:00;;;;;;;9.38;5.03;;;;;;;;;;5014080;28;20310;-72
2021/10/27 07:43:30;;;;;;;9.02;4.70;;;;;;;;;;4995019;28;20199;-72
2021/10/27 07:45:55;;;;;;;6.10;4.40;;;;;;;;;;5013870;28;20171;-72
2021/10/27 07:48:21;;;;;;;7.78;4.13;;;;;;;;;;4996399;28;20189;-72
2021/10/27 07:50:47;;;;;;;6.28;4.22;;;;;;;;;;5013900;28;20651;-72
2021/10/27 07:53:12;;;;;;;9.52;4.30;;;;;;;;;;5007803;28;20289;-72
2021/10/27 07:55:51;;;;;;;10.25;4.28;;;;;;;;;;5012948;28;20258;-72
2021/10/27 07:58:21;;;;;;;9.55;4.22;;;;;;;;;;5012391;28;20191;-72
2021/10/27 08:00:48;;;;;;;8.55;4.93;;;;;;;;;;5003840;28;20167;-72
2021/10/27 08:03:14;;;;;;;8.35;4.80;;;;;;;;;;5006528;28;20198;-73
2021/10/27 08:05:41;;;;;;;11.30;4.65;;;;;;;;;;5012950;28;20185;-72
2021/10/27 08:08:07;;;;;;;5.93;4.28;;;;;;;;;;5012155;28;20183;-72
2021/10/27 08:10:33;;;;;;;10.07;5.18;;;;;;;;;;5008476;28;20175;-72
2021/10/27 08:12:59;;;;;;;11.57;6.93;;;;;;;;;;5009681;28;20207;-71
2021/10/27 08:15:24;;;;;;;10.32;5.85;;;;;;;;;;5009071;28;20656;-73
2021/10/27 08:17:49;;;;;;;11.20;5.10;;;;;;;;;;5005883;28;20233;-72
2021/10/27 08:20:15;;;;;;;8.88;5.18;;;;;;;;;;4995768;28;20265;-72
2021/10/27 08:22:43;;;;;;;8.65;5.20;;;;;;;;;;4994792;28;20489;-73
2021/10/27 08:25:20;;;;;;;11.18;4.47;;;;;;;;;;4991168;28;20183;-74
2021/10/27 08:27:45;;;;;;;13.25;5.93;;;;;;;;;;4977578;28;20197;-71
2021/10/27 08:30:12;;;;;;;9.35;5.75;;;;;;;;;;4996007;28;20523;-72
2021/10/27 08:32:43;;;;;;;9.90;5.18;;;;;;;;;;4975440;28;20182;-71
2021/10/27 08:35:13;;;;;;;13.27;5.93;;;;;;;;;;4991350;28;20183;-72
2021/10/27 08:37:43;;;;;;;10.60;5.35;;;;;;;;;;4993115;28;20186;-73
2021/10/27 08:40:08;;;;;;;6.82;5.30;;;;;;;;;;4993272;28;20691;-72
2021/10/27 08:42:34;;;;;;;7.60;4.65;;;;;;;;;;4991735;28;20190;-72
2021/10/27 08:44:59;;;;;;;9.88;5.18;;;;;;;;;;4994635;28;20200;-73
2021/10/27 08:47:27;;;;;;;8.55;5.25;;;;;;;;;;4992242;28;20179;-74
2021/10/27 08:49:55;;;;;;;10.50;5.60;;;;;;;;;;4991103;28;20246;-73
2021/10/27 08:52:20;;;;;;;8.60;5.22;;;;;;;;;;4991747;28;20179;-73
2021/10/27 08:54:45;;;;;;;9.02;5.70;;;;;;;;;;5001266;28;20206;-74
2021/10/27 08:57:11;;;;;;;10.35;5.35;;;;;;;;;;4998497;28;20186;-74
2021/10/27 09:05:13;;;;;;;10.23;5.50;;;;;;;;;;4985905;28;20225;-72
2021/10/27 09:07:53;;;;;;;9.30;5.00;;;;;;;;;;4992184;28;20637;-71
2021/10/27 09:15:50;;;;;;;10.55;5.47;;;;;;;;;;5001197;28;20206;-72
2021/10/27 09:37:59;;;;;;;9.70;6.18;;;;;;;;;;4985085;28;20704;-73
2021/10/27 10:04:01;;;;;;;7.82;5.45;;;;;;;;;;4988078;28;20198;-72
2021/10/27 10:05:00;;;;;;;8.02;6.25;;;;;;;;;;5007181;28;20209;-72
2021/10/27 10:07:25;;;;;;;12.70;6.28;;;;;;;;;;4986181;28;20202;-71
2021/10/27 10:09:50;;;;;;;10.30;5.93;;;;;;;;;;4986523;28;22295;-71
2021/10/27 10:12:18;;;;;;;9.15;5.82;;;;;;;;;;4989069;28;20289;-72
2021/10/27 10:14:48;;;;;;;13.60;7.20;;;;;;;;;;4984228;28;20215;-71
2021/10/27 10:17:13;;;;;;;10.38;6.55;;;;;;;;;;4990322;28;20270;-72
2021/10/27 10:19:41;;;;;;;13.63;7.10;;;;;;;;;;4969491;28;20708;-72
2021/10/27 10:22:24;;;;;;;9.95;6.13;;;;;;;;;;4972593;28;20183;-72
2021/10/27 10:24:50;;;;;;;7.57;6.32;;;;;;;;;;4989886;28;20187;-72
2021/10/27 10:27:33;;;;;;;8.55;5.82;;;;;;;;;;4987970;28;20229;-72
2021/10/27 10:30:02;;;;;;;8.30;5.70;;;;;;;;;;4969616;28;20353;-72
2021/10/27 10:32:30;;;;;;;6.95;5.10;;;;;;;;;;4971898;28;20183;-72
2021/10/27 10:34:58;;;;;;;10.85;4.30;;;;;;;;;;4987599;28;20643;-71
2021/10/27 10:37:31;;;;;;;6.57;3.75;;;;;;;;;;4985149;28;20189;-71
2021/10/27 10:39:58;;;;;;;9.32;4.68;;;;;;;;;;4977326;28;20207;-72
2021/10/27 10:43:10;;;;;;;7.72;3.40;;;;;;;;;;4990032;28;20172;-73
2021/10/27 10:45:49;;;;;;;5.40;2.85;;;;;;;;;;4990973;28;20253;-73
2021/10/27 11:02:59;;;;;;;5.25;3.22;;;;;;;;;;4990552;28;20276;-71
2021/10/27 11:39:43;;;;;;;7.40;4.05;;;;;;;;;;4993329;28;20377;-72
2021/10/27 11:42:34;;;;;;;7.15;3.45;;;;;;;;;;4971277;28;20285;-72
2021/10/27 11:45:11;;;;;;;6.63;4.00;;;;;;;;;;4990363;28;20195;-72
2021/10/27 11:47:39;;;;;;;9.98;3.90;;;;;;;;;;4999426;28;20573;-72
2021/10/27 11:50:06;;;;;;;5.60;3.88;;;;;;;;;;4989762;28;20718;-71
2021/10/27 11:52:32;;;;;;;11.80;4.68;;;;;;;;;;4981923;28;20221;-72
2021/10/27 11:54:58;;;;;;;7.97;4.13;;;;;;;;;;4985132;28;20321;-72
2021/10/27 11:57:28;;;;;;;7.20;4.30;;;;;;;;;;4993089;28;20261;-71
2021/10/27 11:59:53;;;;;;;5.55;3.70;;;;;;;;;;4992618;28;20290;-72
2021/10/27 12:02:19;;;;;;;10.30;4.33;;;;;;;;;;4992300;28;20696;-72
2021/10/27 12:04:45;;;;;;;5.90;4.38;;;;;;;;;;4972829;28;20444;-71
2021/10/27 12:15:09;;;;;;;8.13;5.18;;;;;;;;;;4990379;28;20333;-73
2021/10/27 12:17:37;;;;;;;9.45;4.47;;;;;;;;;;4987610;28;20187;-71
2021/10/27 12:20:03;;;;;;;8.30;5.07;;;;;;;;;;4972199;28;20207;-71
2021/10/27 12:22:28;;;;;;;8.38;4.72;;;;;;;;;;4988732;28;20182;-71
2021/10/27 12:24:58;;;;;;;9.25;5.70;;;;;;;;;;4966085;28;20202;-70
2021/10/27 12:27:33;;;;;;;7.55;5.43;;;;;;;;;;4972987;28;20175;-72
2021/10/27 12:30:06;;;;;;;8.63;6.05;;;;;;;;;;4987042;28;20221;-72
2021/10/27 12:32:32;;;;;;;8.15;5.70;;;;;;;;;;4996063;28;20195;-73
2021/10/27 12:35:08;;;;;;;9.38;6.22;;;;;;;;;;4975368;28;20209;-73
2021/10/27 12:43:06;;;;;;;9.63;6.40;;;;;;;;;;4992738;28;20205;-73
2021/10/27 12:45:39;;;;;;;8.10;6.05;;;;;;;;;;4979328;28;20463;-73
2021/10/27 12:48:06;;;;;;;9.80;6.20;;;;;;;;;;4999749;28;20266;-71
2021/10/27 12:50:32;;;;;;;10.38;7.20;;;;;;;;;;4984305;28;20716;-72
2021/10/27 12:52:59;;;;;;;9.18;6.63;;;;;;;;;;4994198;28;20849;-71
2021/10/27 12:55:24;;;;;;;9.90;6.50;;;;;;;;;;4995263;28;20179;-71
2021/10/27 12:57:59;;;;;;;10.15;7.07;;;;;;;;;;5001829;28;20183;-73
2021/10/27 13:00:51;;;;;;;10.20;7.00;;;;;;;;;;4992712;28;20186;-70
2021/10/27 13:05:51;;;;;;;11.02;7.05;;;;;;;;;;4991995;28;20183;-71
2021/10/27 13:08:45;;;;;;;9.63;7.20;;;;;;;;;;4994518;28;20280;-70
2021/10/27 13:16:29;;;;;;;8.43;7.57;;;;;;;;;;4989136;28;20194;-71
2021/10/27 13:24:05;;;;;;;10.55;8.10;;;;;;;;;;4994042;28;20581;-71
2021/10/27 13:31:58;;;;;;;6.20;5.60;;;;;;;;;;4991961;28;20333;-73
2021/10/27 13:34:24;;;;;;;9.68;5.68;;;;;;;;;;4992456;28;20211;-73
2021/10/27 13:36:49;;;;;;;10.05;6.30;;;;;;;;;;4973071;28;20218;-71
2021/10/27 13:39:14;;;;;;;10.75;6.82;;;;;;;;;;4984783;28;20202;-72
2021/10/27 13:41:40;;;;;;;6.93;5.93;;;;;;;;;;4989959;28;20198;-72
2021/10/27 13:44:13;;;;;;;10.07;6.07;;;;;;;;;;4987844;28;20598;-73
2021/10/27 13:46:53;;;;;;;8.45;6.95;;;;;;;;;;4991724;28;20661;-73
2021/10/27 13:57:43;;;;;;;11.48;6.35;;;;;;;;;;4987798;28;20186;-73
2021/10/27 13:57:52;;;;;;;10.30;6.82;;;;;;;;;;4990738;28;20626;-71
2021/10/27 15:21:15;;;;;;;12.82;9.07;;;;;;;;;;5030840;28;20196;-72
2021/10/27 15:27:43;;;;;;;13.13;9.02;;;;;;;;;;5028641;28;20764;-72
2021/10/27 15:31:34;;;;;;;12.03;8.97;;;;;;;;;;5023313;28;20173;-72
2021/10/27 15:36:43;;;;;;;10.55;7.75;;;;;;;;;;5031497;28;21219;-72
2021/10/27 15:44:32;;;;;;;11.10;7.63;;;;;;;;;;5029113;28;20209;-72
2021/10/27 15:52:25;;;;;;;11.50;8.57;;;;;;;;;;5032105;28;20181;-72
2021/10/27 15:54:51;;;;;;;13.40;8.50;;;;;;;;;;5030373;28;20678;-72
2021/10/27 15:57:16;;;;;;;13.25;8.77;;;;;;;;;;5040553;28;20239;-72
2021/10/27 15:59:43;;;;;;;11.25;7.32;;;;;;;;;;5031013;28;20284;-72
2021/10/27 16:02:08;;;;;;;12.02;8.48;;;;;;;;;;5033622;28;20830;-72
2021/10/27 16:04:37;;;;;;;16.17;9.15;;;;;;;;;;5029460;28;20213;-71
2021/10/27 16:07:05;;;;;;;13.38;9.40;;;;;;;;;;5031050;28;20180;-72
2021/10/27 16:09:37;;;;;;;15.65;9.05;;;;;;;;;;5032779;28;20267;-71
2021/10/27 16:12:02;;;;;;;12.05;8.73;;;;;;;;;;5032138;28;20319;-71
2021/10/27 16:14:28;;;;;;;11.88;8.43;;;;;;;;;;5032559;28;20584;-71
2021/10/27 16:16:53;;;;;;;12.57;9.50;;;;;;;;;;5031789;28;20190;-71
2021/10/27 16:19:18;;;;;;;13.57;9.15;;;;;;;;;;5035587;28;21489;-71
2021/10/27 16:21:44;;;;;;;15.55;9.85;;;;;;;;;;5014951;28;20443;-72
2021/10/27 16:24:09;;;;;;;14.05;10.23;;;;;;;;;;5032692;28;20311;-71
2021/10/27 16:26:35;;;;;;;13.82;9.50;;;;;;;;;;5030351;28;20833;-71
2021/10/27 16:29:01;;;;;;;15.30;9.75;;;;;;;;;;5035164;28;20181;-71
2021/10/27 16:31:26;;;;;;;17.40;10.70;;;;;;;;;;5031360;28;20189;-71
2021/10/27 16:33:51;;;;;;;18.85;10.38;;;;;;;;;;5033080;28;20274;-72
2021/10/27 16:36:17;;;;;;;14.50;9.70;;;;;;;;;;5028475;28;20777;-71
2021/10/27 16:38:42;;;;;;;16.42;9.98;;;;;;;;;;5028831;28;20194;-71
2021/10/27 16:41:09;;;;;;;17.20;9.93;;;;;;;;;;5031078;28;20178;-71
2021/10/27 16:43:34;;;;;;;15.07;11.35;;;;;;;;;;5036890;28;20199;-71
2021/10/27 16:45:59;;;;;;;19.08;10.55;;;;;;;;;;5013368;28;20190;-71
2021/10/27 16:48:25;;;;;;;14.00;10.65;;;;;;;;;;5014016;28;20329;-71
2021/10/27 16:50:51;;;;;;;18.23;12.20;;;;;;;;;;5029582;28;20622;-72
2021/10/27 16:53:20;;;;;;;17.45;10.73;;;;;;;;;;5014624;28;20181;-71
2021/10/27 16:55:45;;;;;;;16.58;10.68;;;;;;;;;;5039584;28;20202;-71
2021/10/27 16:58:10;;;;;;;18.23;11.50;;;;;;;;;;5022359;28;20455;-72
2021/10/27 17:00:35;;;;;;;18.25;10.85;;;;;;;;;;5030696;28;20192;-72
2021/10/27 17:03:01;;;;;;;18.90;11.52;;;;;;;;;;5030560;28;20178;-72
2021/10/27 17:05:26;;;;;;;14.90;11.40;;;;;;;;;;5031020;28;20200;-72
2021/10/27 17:07:52;;;;;;;14.93;10.55;;;;;;;;;;5028918;28;20419;-71
2021/10/27 17:10:17;;;;;;;17.48;11.57;;;;;;;;;;5027369;28;20177;-71
2021/10/27 17:12:43;;;;;;;15.15;10.27;;;;;;;;;;5028929;28;20209;-72
2021/10/27 17:15:09;;;;;;;13.50;10.63;;;;;;;;;;5012668;28;20743;-71
2021/10/27 17:17:35;;;;;;;16.15;11.02;;;;;;;;;;5031979;28;20651;-72
2021/10/27 17:20:00;;;;;;;21.67;13.52;;;;;;;;;;5028412;28;20205;-72
2021/10/27 17:22:28;;;;;;;18.75;12.75;;;;;;;;;;5030770;28;20209;-73
2021/10/27 17:24:54;;;;;;;15.82;11.57;;;;;;;;;;5032377;28;20259;-71
2021/10/27 17:27:20;;;;;;;24.35;13.55;;;;;;;;;;5030206;28;20178;-71
2021/10/27 17:29:46;;;;;;;19.42;12.15;;;;;;;;;;5030117;28;20198;-71
2021/10/27 17:32:11;;;;;;;18.35;12.60;;;;;;;;;;5027794;28;20181;-72
2021/10/27 17:34:36;;;;;;;21.33;13.48;;;;;;;;;;5029439;28;20328;-71
2021/10/27 17:37:02;;;;;;;16.00;12.18;;;;;;;;;;5027944;28;20193;-71
2021/10/27 17:39:27;;;;;;;25.67;16.48;;;;;;;;;;5029406;28;20343;-72
2021/10/27 17:41:55;;;;;;;24.17;14.88;;;;;;;;;;5028730;28;20247;-71
2021/10/27 17:44:20;;;;;;;25.92;17.85;;;;;;;;;;5027153;28;20196;-71
2021/10/27 17:46:53;;;;;;;25.40;17.48;;;;;;;;;;5013852;28;20186;-71
2021/10/27 17:50:08;;;;;;;34.92;21.38;;;;;;;;;;5028206;28;20197;-71
2021/10/27 18:00:04;;;;;;;34.83;21.27;;;;;;;;;;5030723;28;20219;-71
2021/10/27 18:02:29;;;;;;;34.72;21.75;;;;;;;;;;5027210;28;20198;-71
2021/10/27 18:04:55;;;;;;;34.07;21.30;;;;;;;;;;5012216;28;20204;-71
2021/10/27 18:07:24;;;;;;;36.90;23.77;;;;;;;;;;5029131;28;20290;-71
2021/10/27 18:09:49;;;;;;;30.53;20.87;;;;;;;;;;5026196;28;20244;-71
2021/10/27 18:12:18;;;;;;;28.67;19.40;;;;;;;;;;5033412;28;20190;-71
2021/10/27 18:14:44;;;;;;;27.23;20.10;;;;;;;;;;5010131;28;20235;-71
2021/10/27 18:17:12;;;;;;;28.20;19.63;;;;;;;;;;5033699;28;20196;-71
2021/10/27 18:19:51;;;;;;;28.77;18.80;;;;;;;;;;5037300;28;20209;-71
2021/10/27 18:22:29;;;;;;;31.53;21.30;;;;;;;;;;5032952;28;20702;-71
2021/10/27 18:38:48;;;;;;;25.07;17.07;;;;;;;;;;5030414;28;20228;-71
2021/10/27 18:43:58;;;;;;;30.67;19.03;;;;;;;;;;5028294;28;21186;-71
2021/10/27 18:46:23;;;;;;;26.97;16.67;;;;;;;;;;5027534;28;20198;-71
2021/10/27 18:48:50;;;;;;;26.97;17.43;;;;;;;;;;5029080;28;20200;-71
2021/10/27 18:51:33;;;;;;;31.30;18.40;;;;;;;;;;5014593;28;20182;-71
2021/10/27 18:59:21;;;;;;;24.17;16.43;;;;;;;;;;5027825;28;20278;-71
2021/10/27 19:12:54;;;;;;;32.30;21.13;;;;;;;;;;5032494;28;20573;-71
2021/10/27 19:17:23;;;;;;;33.07;19.60;;;;;;;;;;5037331;28;20182;-71
2021/10/27 19:19:50;;;;;;;27.37;18.33;;;;;;;;;;5031944;28;20213;-71
2021/10/27 19:22:16;;;;;;;27.80;19.27;;;;;;;;;;5033833;28;20635;-71
2021/10/27 19:27:13;;;;;;;30.27;18.13;;;;;;;;;;5038943;28;20251;-71
2021/10/27 19:30:09;;;;;;;35.00;20.47;;;;;;;;;;5034189;28;20190;-71
2021/10/27 19:35:20;;;;;;;29.13;19.13;;;;;;;;;;5035259;28;20591;-72
2021/10/27 20:05:40;;;;;;;27.73;17.80;;;;;;;;;;5031022;28;20217;-71
2021/10/27 20:10:58;;;;;;;25.73;16.10;;;;;;;;;;5031113;28;20188;-71
2021/10/27 20:53:32;;;;;;;22.80;16.50;;;;;;;;;;5031662;28;20216;-74
2021/10/27 20:55:58;;;;;;;23.63;16.50;;;;;;;;;;5034953;28;20197;-75
2021/10/27 21:03:47;;;;;;;25.17;18.23;;;;;;;;;;5029590;28;20198;-75
2021/10/27 21:14:25;;;;;;;22.83;17.33;;;;;;;;;;5030155;28;20261;-74